09:43
Airports
History
Links
Donate
Help keep this website running!
PayPal
Bitcoin
This page is community maintained. The information is intended for PC simulator navigation or reference.
Always use approved charts for navigation.
SIRF
Jose Mucio Monteiro
Jose Mucio Monteiro (SIRF)
Rio Formoso, Pernambuco, Brazil (55580)
4
Lat/Lng:8° 37' 52" S / 35° 16' 18" W
-8.631111 / -35.271667
Elevation:479'ft / 146mMSL
ID / ICAO:SIRF
Runways:1
Longest:13-31
Gravel 805m / 2,640ft
Nearby Weather09:00 GMT 2018-02-24
Nearby weather at SBRF, Recife Intl located 42.2 nautical miles from SIRF
Altimeter: 29.85
Visibility: 6.2 statute miles
Wind: 0 knots (from 000°)
Temp: 27°c / 81°f
Humidity: 74.2%

METAR: SBRF 240900Z 00000KT 9999 SCT023 27/22 Q1011

(Powered by phpweather)
Runway 13 / 31
Dimensions:804.7 x 18m 2640' x 59'ft
Surface:Gravel
Runway 13 [A]Runway 31 [B]
Heading:107°TH 287°TH
Lat:
Lng:
8° 37' 48.06"S
35° 16' 30.5"W
8° 37' 55.94"S
35° 16' 5.5"W
User Notes and Comments
8° 37' 52" S / 35° 16' 18" W
Distance To
Airport ID:
Nearby Airports
4 Destilaria Sao Luiz 36.5 NM
SJZC WSW 253°
(U) Fazenda Lagoa do Cavalo 40.3 NM
SDWI NW 322°
(C) Recife Intl 42.2 NM
SBRF ( WX ) NE 34°
(U) Encanta Moca 45.2 NM
SNEM NE 35°
(C) Caruaru 56.1 NM
SNRU WNW 295°
(C) Zumbi Dos Palmares 70.4 NM
SBMO ( WX ) SSW 210°
4 Laginha 71.4 NM
SNWP SW 228°
VFR Chart
Flight Planning at SkyVector.com